Gatlinburg, TN

3:59 AM EDT on September 01, 2015 (GMT -0400)
KTNSEVIE4 | | Change Station
CLOSE
Current Station
Personal Weather Station
Location: Wears Valley, TN, TN
Elevation: 1519 ft
Nearby Weather Stations

Elev 1519 ft 35.71 °N, 83.67 °W | Updated 3 seconds ago

Clear
Clear
63.1 °F
Feels Like 63.1 °F
N
0.0
Wind Variable Wind from SW
Gusts 0.0 mph

Today
High -- | Low -- °F
--% Chance of Precip.
Yesterday
High -- | Low -- °F
Precip. -- in
7:05 AM 8:01 PM
Waning Gibbous, 90% visible
Pressure 30.08 in
Visibility 10.0 miles
Clouds Scattered Clouds 15000 ft
Dew Point 54 °F
Humidity 73%
Rainfall 0.00 in
Snow Depth Not available.
UV 0 out of 12
Pollen 9.10 out of 12
Air Quality Not available.
Flu Activity Not available.
METAR KTYS 010753Z 00000KT 10SM SCT150 20/20 A3011 RMK AO2 SLP184 T02000194 $
Pressure 30.08 in
Visibility 10.0 miles
Clouds Scattered Clouds 15000 ft
Dew Point 54 °F
Humidity 73%
Rainfall 0.00 in
Snow Depth Not available.
UV 0 out of 12
Pollen 9.10 out of 12
Air Quality Not available.
Flu Activity Not available.
METAR KTYS 010753Z 00000KT 10SM SCT150 20/20 A3011 RMK AO2 SLP184 T02000194 $

10-Day Weather Forecast

×

Almanac

Astronomy

Sep. 01, 2015 Rise Set
Actual Time
Civil Twilight
Nautical Twilight
Astronomical Twilight
Moon
Length of Visible Light
Length of Day
Tomorrow will be .
, % of the Moon is Illuminated

Today's Extremes

State Highs State Lows

Community

WunderPhotos

Upload Photos

1,851,488 photos uploaded!

WunderBlogs® & News

Nearby

Air Quality

  Air Quality AQ Index Pollutant
Not available.

Snow Depth

Station Depth Elevation

Earthquake Activity

City Distance Mag. Time & Date
Minimum magnitude displayed is 2.5.

Coastal Water Temperatures

Place Temperature

Stations

Nearby Weather Stations

Station Location Temp. Windchill Dew Point Humidity Wind Precip. Elev Updated Type